Time;durP1;ratioP1;P1;durP2;ratioP2;P2;SDS_P1;SDS_P2;PMS_P1;PMS_P2;Temp;Humidity;BMP_temperature;BMP_pressure;BME280_temperature;BME280_humidity;BME280_pressure;Samples;Min_cycle;Max_cycle;Signal;HPM_P1;HPM_P2
2023/07/19 00:01:27;;;;;;;0.00;0.00;;;;;;;23.35;65.34;101443.00;5032192;28;20029;-63
2023/07/19 00:03:52;;;;;;;0.00;0.00;;;;;;;23.17;65.93;101445.69;5032569;28;20029;-62
2023/07/19 00:06:17;;;;;;;0.10;0.10;;;;;;;23.28;65.74;101447.19;5031018;28;20072;-63
2023/07/19 00:08:43;;;;;;;0.10;0.10;;;;;;;23.19;65.26;101443.47;5030230;28;20453;-61
2023/07/19 00:11:08;;;;;;;0.00;0.00;;;;;;;23.14;65.26;101447.09;5014051;28;20091;-63
2023/07/19 00:13:34;;;;;;;0.00;0.00;;;;;;;23.15;65.78;101440.53;5031770;28;20037;-62
2023/07/19 00:15:59;;;;;;;0.10;0.10;;;;;;;23.15;66.21;101439.69;5032115;28;20028;-63
2023/07/19 00:18:25;;;;;;;0.00;0.00;;;;;;;23.07;67.29;101440.34;5032363;28;20022;-62
2023/07/19 00:20:50;;;;;;;0.00;0.00;;;;;;;23.23;65.38;101436.28;5031887;28;20071;-62
2023/07/19 00:23:15;;;;;;;0.00;0.00;;;;;;;23.23;65.32;101444.53;5031737;28;20494;-63
2023/07/19 00:25:41;;;;;;;0.00;0.00;;;;;;;23.26;65.38;101439.25;5014074;28;20037;-62
2023/07/19 00:28:06;;;;;;;0.00;0.00;;;;;;;23.22;66.23;101437.41;5031533;28;20376;-64
2023/07/19 00:30:32;;;;;;;0.00;0.00;;;;;;;23.10;66.02;101440.56;5032020;28;20039;-63
2023/07/19 00:32:57;;;;;;;0.00;0.00;;;;;;;23.29;65.05;101432.38;5031899;28;20037;-61
2023/07/19 00:35:23;;;;;;;0.10;0.10;;;;;;;23.24;65.47;101440.66;5031461;28;20037;-63
2023/07/19 00:37:48;;;;;;;0.00;0.00;;;;;;;22.92;66.36;101437.81;5031678;28;20083;-63
2023/07/19 00:40:13;;;;;;;0.08;0.08;;;;;;;22.36;69.47;101432.06;5031420;28;20496;-62
2023/07/19 00:42:39;;;;;;;0.00;0.00;;;;;;;22.87;67.51;101435.09;5031874;28;20079;-63
2023/07/19 00:45:05;;;;;;;0.10;0.10;;;;;;;22.89;67.59;101436.44;5031084;28;20025;-63
2023/07/19 00:47:31;;;;;;;0.00;0.00;;;;;;;22.87;66.89;101433.19;5013280;28;20132;-62
2023/07/19 00:49:57;;;;;;;0.08;0.08;;;;;;;23.11;65.70;101431.25;5013206;28;20029;-63
2023/07/19 00:52:23;;;;;;;0.00;0.00;;;;;;;23.13;65.56;101430.94;5031294;28;20029;-62
2023/07/19 00:54:48;;;;;;;0.00;0.00;;;;;;;22.92;66.86;101430.38;5031335;28;20040;-63
2023/07/19 00:57:14;;;;;;;0.00;0.00;;;;;;;23.03;66.58;101428.34;5031103;28;20045;-62
2023/07/19 00:59:40;;;;;;;0.00;0.00;;;;;;;22.96;66.89;101420.44;5030955;28;20397;-63
2023/07/19 01:02:06;;;;;;;0.00;0.00;;;;;;;22.81;65.97;101419.81;5031039;28;20083;-62
2023/07/19 01:04:31;;;;;;;0.00;0.00;;;;;;;22.88;65.88;101423.84;5030565;28;20033;-62
2023/07/19 01:06:57;;;;;;;0.00;0.00;;;;;;;22.94;65.80;101421.88;5031473;28;20021;-62
2023/07/19 01:09:23;;;;;;;0.00;0.00;;;;;;;22.68;67.12;101418.63;5031269;28;20557;-63
2023/07/19 01:11:48;;;;;;;0.10;0.10;;;;;;;22.91;65.77;101427.94;5031151;28;20061;-62
2023/07/19 01:14:14;;;;;;;0.00;0.00;;;;;;;22.79;65.28;101422.03;5030686;28;20048;-63
2023/07/19 01:16:39;;;;;;;0.00;0.00;;;;;;;22.76;66.77;101422.63;5013090;28;20041;-62
2023/07/19 01:19:05;;;;;;;0.05;0.05;;;;;;;22.52;67.52;101417.13;5030754;28;20028;-62
2023/07/19 01:21:30;;;;;;;0.10;0.10;;;;;;;22.59;66.98;101410.22;5031135;28;20112;-63
2023/07/19 01:23:56;;;;;;;0.05;0.05;;;;;;;22.70;66.60;101419.16;5030691;28;20033;-63
2023/07/19 01:26:21;;;;;;;0.10;0.10;;;;;;;22.63;67.54;101410.44;5030511;28;20051;-62
2023/07/19 01:28:47;;;;;;;0.10;0.10;;;;;;;22.43;68.23;101413.38;5030627;28;20078;-62
2023/07/19 01:31:14;;;;;;;0.03;0.03;;;;;;;22.56;67.66;101408.00;5030692;28;20033;-61
2023/07/19 01:33:40;;;;;;;0.10;0.10;;;;;;;22.45;67.55;101409.25;5030830;28;20025;-63
2023/07/19 01:36:05;;;;;;;0.10;0.10;;;;;;;22.44;67.08;101409.53;5030791;28;20079;-61
2023/07/19 01:38:31;;;;;;;0.10;0.10;;;;;;;22.49;67.45;101404.00;5030360;28;20259;-61
2023/07/19 01:40:56;;;;;;;0.10;0.10;;;;;;;22.41;67.94;101405.44;5029937;28;20481;-63
2023/07/19 01:43:21;;;;;;;0.00;0.00;;;;;;;22.46;67.51;101408.16;5034651;28;20052;-61
2023/07/19 01:45:47;;;;;;;0.10;0.10;;;;;;;22.31;68.26;101405.53;5033654;28;20429;-61
2023/07/19 01:48:13;;;;;;;0.10;0.10;;;;;;;22.40;67.65;101414.78;5030008;28;20049;-62
2023/07/19 01:50:38;;;;;;;0.10;0.10;;;;;;;22.30;67.66;101411.31;5028713;28;20412;-63
2023/07/19 01:53:03;;;;;;;0.08;0.08;;;;;;;22.19;68.24;101413.31;5030148;28;20037;-62
2023/07/19 01:55:30;;;;;;;0.00;0.00;;;;;;;22.01;69.56;101416.81;5030019;28;20561;-62
2023/07/19 01:57:55;;;;;;;0.10;0.10;;;;;;;22.25;67.84;101408.63;5029922;28;20037;-62
2023/07/19 02:00:21;;;;;;;0.05;0.05;;;;;;;22.31;67.91;101408.28;5030307;28;20059;-62
2023/07/19 02:02:46;;;;;;;0.10;0.10;;;;;;;22.24;68.19;101404.25;5030186;28;20496;-61
2023/07/19 02:05:12;;;;;;;0.10;0.10;;;;;;;22.19;68.63;101404.31;5029788;28;20053;-63
2023/07/19 02:07:37;;;;;;;0.10;0.10;;;;;;;22.22;68.65;101401.00;5029756;28;20045;-64
2023/07/19 02:10:04;;;;;;;0.00;0.00;;;;;;;22.22;67.87;101393.59;5030026;28;20763;-62
2023/07/19 02:12:29;;;;;;;0.10;0.10;;;;;;;22.01;68.46;101394.06;5030211;28;20061;-62
2023/07/19 02:14:55;;;;;;;0.00;0.00;;;;;;;21.67;70.07;101405.00;5028874;28;20524;-62
2023/07/19 02:17:20;;;;;;;0.10;0.10;;;;;;;22.05;67.45;101395.97;5029417;28;20037;-61
2023/07/19 02:19:46;;;;;;;0.10;0.10;;;;;;;22.18;67.38;101392.53;5029447;28;20037;-61
2023/07/19 02:22:12;;;;;;;0.10;0.10;;;;;;;22.24;66.85;101390.56;5029658;28;20477;-62
2023/07/19 02:24:37;;;;;;;0.10;0.10;;;;;;;22.07;67.88;101395.66;5030095;28;20378;-62
2023/07/19 02:27:03;;;;;;;0.10;0.10;;;;;;;22.23;67.52;101389.75;5029859;28;20088;-62
2023/07/19 02:29:28;;;;;;;0.10;0.10;;;;;;;22.16;67.46;101388.44;5029634;28;20037;-64
2023/07/19 02:31:54;;;;;;;0.10;0.10;;;;;;;22.05;68.04;101395.13;5029407;28;20428;-62
2023/07/19 02:34:20;;;;;;;0.10;0.10;;;;;;;22.09;68.05;101393.47;5029485;28;20515;-63
2023/07/19 02:36:49;;;;;;;0.10;0.10;;;;;;;22.16;67.94;101391.19;5029912;28;20029;-61
2023/07/19 02:39:14;;;;;;;0.08;0.08;;;;;;;22.27;66.72;101387.25;5029158;28;20079;-63
2023/07/19 02:41:39;;;;;;;0.10;0.10;;;;;;;22.20;67.31;101384.03;5028843;28;20405;-61
2023/07/19 02:44:05;;;;;;;0.10;0.10;;;;;;;22.31;66.56;101385.59;5029118;28;20042;-64
2023/07/19 02:46:30;;;;;;;0.10;0.10;;;;;;;22.21;68.03;101388.41;5029244;28;20452;-62
2023/07/19 02:48:55;;;;;;;0.10;0.10;;;;;;;22.26;67.20;101383.69;5027763;28;20033;-62
2023/07/19 02:51:21;;;;;;;0.10;0.10;;;;;;;21.81;68.50;101392.34;5029807;28;20393;-62
2023/07/19 02:53:47;;;;;;;0.08;0.08;;;;;;;22.05;67.23;101386.94;5027360;28;20030;-62
2023/07/19 02:56:12;;;;;;;0.10;0.10;;;;;;;22.07;66.71;101392.94;5044408;28;20083;-63
2023/07/19 02:58:38;;;;;;;0.10;0.10;;;;;;;22.04;67.38;101391.56;5045240;28;20436;-62
2023/07/19 03:01:04;;;;;;;0.10;0.10;;;;;;;21.65;69.04;101397.06;5048771;28;20120;-62
2023/07/19 03:03:29;;;;;;;0.10;0.10;;;;;;;22.24;66.73;101393.31;5049678;28;20036;-61
2023/07/19 03:05:55;;;;;;;0.00;0.00;;;;;;;22.04;68.04;101393.50;5048944;28;20400;-61
2023/07/19 03:08:20;;;;;;;0.10;0.10;;;;;;;22.02;67.93;101398.44;5048811;28;20033;-63
2023/07/19 03:10:45;;;;;;;0.10;0.10;;;;;;;21.92;68.01;101402.09;5048548;28;20493;-64
2023/07/19 03:13:11;;;;;;;0.10;0.10;;;;;;;22.20;67.23;101393.06;5048965;28;20093;-62
2023/07/19 03:15:36;;;;;;;0.00;0.00;;;;;;;22.05;68.19;101395.13;5044314;28;20026;-63
2023/07/19 03:18:03;;;;;;;0.10;0.10;;;;;;;22.14;68.42;101393.41;5028913;28;20429;-62
2023/07/19 03:20:29;;;;;;;0.10;0.10;;;;;;;22.31;67.81;101404.75;5011443;28;20057;-62
2023/07/19 03:22:55;;;;;;;0.10;0.10;;;;;;;22.26;69.97;101396.56;5027590;28;20041;-62
2023/07/19 03:25:22;;;;;;;0.10;0.10;;;;;;;22.13;68.76;101400.00;5028970;28;20103;-62
2023/07/19 03:27:56;;;;;;;0.08;0.08;;;;;;;21.99;70.66;101396.28;5032354;28;20033;-63
2023/07/19 03:30:22;;;;;;;0.10;0.10;;;;;;;22.10;68.79;101395.91;5033103;28;20041;-63
2023/07/19 03:32:47;;;;;;;0.10;0.10;;;;;;;21.98;70.50;101400.09;5033131;28;20509;-63
2023/07/19 03:35:13;;;;;;;0.10;0.10;;;;;;;22.18;69.54;101394.44;5033282;28;20037;-63
2023/07/19 03:37:44;;;;;;;0.10;0.10;;;;;;;22.13;69.25;101395.31;5032958;28;20543;-62
2023/07/19 03:40:13;;;;;;;0.10;0.10;;;;;;;22.03;70.05;101405.56;5032648;28;20025;-62
2023/07/19 03:42:38;;;;;;;0.10;0.10;;;;;;;21.69;72.23;101411.81;5032932;28;20026;-63
2023/07/19 03:45:05;;;;;;;0.10;0.10;;;;;;;22.09;70.39;101412.63;5051614;28;20496;-62
2023/07/19 03:47:30;;;;;;;0.10;0.10;;;;;;;21.73;72.02;101418.34;5052671;28;20083;-62
2023/07/19 03:49:56;;;;;;;0.10;0.10;;;;;;;21.88;72.23;101408.44;5052382;28;20044;-66
2023/07/19 03:52:21;;;;;;;0.03;0.03;;;;;;;22.02;72.67;101406.66;5052503;28;20495;-63
2023/07/19 03:54:46;;;;;;;0.10;0.10;;;;;;;22.04;72.11;101407.19;5052355;28;20043;-63
2023/07/19 03:57:12;;;;;;;0.10;0.10;;;;;;;22.05;71.70;101404.16;5051821;28;20060;-64
2023/07/19 03:59:37;;;;;;;0.10;0.10;;;;;;;21.57;73.02;101424.22;5051796;28;20098;-61
2023/07/19 04:02:03;;;;;;;0.10;0.10;;;;;;;21.65;73.52;101424.44;5039184;28;20080;-62
2023/07/19 04:04:29;;;;;;;0.00;0.00;;;;;;;21.68;73.47;101418.38;5031942;28;20057;-63
2023/07/19 04:06:54;;;;;;;0.10;0.10;;;;;;;21.56;73.17;101417.13;5030034;28;20025;-62
2023/07/19 04:09:20;;;;;;;0.10;0.10;;;;;;;21.89;72.14;101419.09;5000161;28;20120;-62
2023/07/19 04:11:46;;;;;;;0.10;0.10;;;;;;;21.95;72.36;101408.91;5026864;28;20037;-63
2023/07/19 04:14:11;;;;;;;0.10;0.10;;;;;;;21.55;73.42;101413.56;5031305;28;20037;-61
2023/07/19 04:16:36;;;;;;;0.10;0.10;;;;;;;22.13;71.27;101410.94;5031150;28;20087;-62
2023/07/19 04:19:02;;;;;;;0.10;0.10;;;;;;;21.89;72.33;101405.41;5031500;28;20037;-63
2023/07/19 04:21:27;;;;;;;0.10;0.10;;;;;;;21.71;73.24;101412.34;5032163;28;20412;-61
2023/07/19 04:23:52;;;;;;;0.10;0.10;;;;;;;21.86;73.11;101418.84;5013347;28;20038;-63
2023/07/19 04:26:18;;;;;;;0.10;0.10;;;;;;;21.91;71.89;101416.88;5031769;28;20091;-62
2023/07/19 04:28:43;;;;;;;0.03;0.03;;;;;;;21.96;71.91;101405.88;5031577;28;20041;-62
2023/07/19 04:31:08;;;;;;;0.10;0.10;;;;;;;22.21;70.84;101407.59;5013544;28;20481;-62
2023/07/19 04:33:34;;;;;;;0.10;0.10;;;;;;;22.12;71.57;101412.84;5031891;28;20022;-62
2023/07/19 04:35:59;;;;;;;0.10;0.10;;;;;;;22.21;71.17;101397.44;5013816;28;20044;-61
2023/07/19 04:38:25;;;;;;;0.10;0.10;;;;;;;22.28;71.57;101408.06;5029048;28;20048;-62
2023/07/19 04:40:50;;;;;;;0.10;0.10;;;;;;;22.19;71.66;101407.84;5031335;28;20499;-63
2023/07/19 04:43:16;;;;;;;0.10;0.10;;;;;;;22.20;70.59;101397.72;5034996;28;20033;-62
2023/07/19 04:45:44;;;;;;;0.00;0.00;;;;;;;22.09;71.60;101398.94;5034076;28;20029;-61
2023/07/19 04:48:10;;;;;;;0.10;0.10;;;;;;;22.27;70.84;101398.22;5051301;28;20660;-62
2023/07/19 04:50:36;;;;;;;0.10;0.10;;;;;;;22.27;70.38;101398.22;5051254;28;20033;-62
2023/07/19 04:53:02;;;;;;;0.03;0.03;;;;;;;22.22;70.83;101395.50;5051259;28;20041;-61
2023/07/19 04:55:27;;;;;;;0.10;0.10;;;;;;;22.19;71.11;101396.91;5051148;28;20046;-61
2023/07/19 04:57:52;;;;;;;0.10;0.10;;;;;;;22.27;71.20;101396.28;5051306;28;20045;-63
2023/07/19 05:00:18;;;;;;;0.10;0.10;;;;;;;22.36;70.30;101391.00;5050922;28;20447;-62
2023/07/19 05:02:43;;;;;;;0.10;0.10;;;;;;;22.55;69.47;101397.34;5050940;28;20053;-62
2023/07/19 05:05:09;;;;;;;0.10;0.10;;;;;;;22.51;70.90;101396.28;5051310;28;20552;-64
2023/07/19 05:07:36;;;;;;;0.10;0.10;;;;;;;22.65;69.75;101395.34;5051023;28;20492;-61
2023/07/19 05:10:03;;;;;;;0.05;0.05;;;;;;;22.60;70.04;101392.66;5051084;28;20029;-63
2023/07/19 05:12:29;;;;;;;0.08;0.08;;;;;;;22.67;69.97;101398.63;5051198;28;20120;-63
2023/07/19 05:14:55;;;;;;;0.10;0.10;;;;;;;22.65;69.47;101394.53;5050455;28;20064;-61
2023/07/19 05:17:20;;;;;;;0.10;0.10;;;;;;;22.82;69.18;101394.06;5031074;28;20118;-62
2023/07/19 05:19:46;;;;;;;0.10;0.10;;;;;;;22.77;69.89;101389.44;5030932;28;20041;-63
2023/07/19 05:22:11;;;;;;;0.10;0.10;;;;;;;22.74;70.47;101394.72;5030544;28;20477;-62
2023/07/19 05:24:37;;;;;;;0.10;0.10;;;;;;;22.57;70.21;101398.72;5031593;28;20473;-62
2023/07/19 05:27:03;;;;;;;0.00;0.00;;;;;;;22.72;70.23;101400.50;5030703;28;20064;-63
2023/07/19 05:29:28;;;;;;;0.00;0.00;;;;;;;22.79;70.08;101392.72;5030563;28;20033;-63
2023/07/19 05:31:54;;;;;;;0.10;0.10;;;;;;;23.00;68.80;101396.81;5012485;28;20117;-64
2023/07/19 05:34:19;;;;;;;0.10;0.10;;;;;;;22.96;68.42;101397.72;5030430;28;20088;-62
2023/07/19 05:36:45;;;;;;;0.10;0.10;;;;;;;22.81;68.41;101397.91;5031042;28;20041;-63
2023/07/19 05:39:10;;;;;;;0.00;0.00;;;;;;;22.70;67.93;101403.50;5030603;28;20044;-62
2023/07/19 05:41:36;;;;;;;0.00;0.00;;;;;;;23.07;66.65;101404.69;5030323;28;20033;-63
2023/07/19 05:44:02;;;;;;;0.10;0.10;;;;;;;22.10;68.90;101400.56;5029982;28;20088;-62
2023/07/19 05:46:27;;;;;;;0.00;0.00;;;;;;;22.52;66.94;101403.41;5030620;28;20030;-62
2023/07/19 05:48:52;;;;;;;0.10;0.10;;;;;;;22.94;65.99;101400.75;5031084;28;20106;-62
2023/07/19 05:51:19;;;;;;;0.03;0.03;;;;;;;23.24;65.05;101407.75;5030297;28;20033;-62
2023/07/19 05:53:44;;;;;;;0.10;0.10;;;;;;;22.75;65.78;101410.84;5030263;28;20087;-62
2023/07/19 05:56:11;;;;;;;0.00;0.00;;;;;;;22.83;65.75;101403.91;5030588;28;20126;-62
2023/07/19 05:58:37;;;;;;;0.00;0.00;;;;;;;23.21;64.18;101403.66;5044107;28;20453;-62
2023/07/19 06:01:04;;;;;;;0.00;0.00;;;;;;;23.14;63.44;101405.97;5049880;28;20044;-62
2023/07/19 06:03:29;;;;;;;0.00;0.00;;;;;;;23.55;63.48;101400.72;5050507;28;20024;-61
2023/07/19 06:05:55;;;;;;;0.10;0.10;;;;;;;23.40;63.36;101400.97;5050082;28;20507;-62
2023/07/19 06:08:20;;;;;;;0.00;0.00;;;;;;;22.99;64.00;101403.44;5050119;28;20379;-61
2023/07/19 06:10:46;;;;;;;0.00;0.00;;;;;;;22.73;64.22;101406.75;5049907;28;20463;-62
2023/07/19 06:13:14;;;;;;;0.00;0.00;;;;;;;22.41;65.80;101405.44;5049866;28;20037;-61
2023/07/19 06:15:40;;;;;;;0.00;0.00;;;;;;;23.35;62.85;101412.03;5044505;28;20071;-61
2023/07/19 06:18:05;;;;;;;0.00;0.00;;;;;;;23.31;63.11;101411.00;5029751;28;20029;-63
2023/07/19 06:20:30;;;;;;;0.00;0.00;;;;;;;23.37;62.41;101410.59;5029879;28;20080;-62
2023/07/19 06:22:56;;;;;;;0.00;0.00;;;;;;;23.41;61.90;101406.16;5030098;28;20041;-63
2023/07/19 06:25:21;;;;;;;0.00;0.00;;;;;;;23.67;60.10;101395.59;5029544;28;20401;-62
2023/07/19 06:27:47;;;;;;;0.00;0.00;;;;;;;24.11;58.58;101400.66;5030054;28;20025;-62
2023/07/19 06:30:13;;;;;;;0.00;0.00;;;;;;;23.60;59.17;101397.94;5029329;28;20033;-63
2023/07/19 06:32:38;;;;;;;0.10;0.10;;;;;;;23.36;60.50;101399.94;5029758;28;20037;-61
2023/07/19 06:35:09;;;;;;;0.00;0.00;;;;;;;23.24;59.69;101402.25;5029521;28;20056;-62
2023/07/19 06:37:34;;;;;;;;;;;;;;;23.76;57.89;101402.06;5026938;28;20042;-62
2023/07/19 06:40:03;;;;;;;0.10;0.10;;;;;;;23.38;58.83;101411.41;5009950;28;19925;-63
2023/07/19 06:42:28;;;;;;;0.00;0.00;;;;;;;23.57;58.55;101409.47;5010389;28;20029;-62
2023/07/19 06:44:54;;;;;;;0.00;0.00;;;;;;;23.85;58.76;101411.25;5043979;28;20029;-63
2023/07/19 06:47:19;;;;;;;0.00;0.00;;;;;;;23.71;59.97;101417.78;5049483;28;20053;-62
2023/07/19 06:49:45;;;;;;;0.00;0.00;;;;;;;23.46;60.31;101413.50;5049119;28;20041;-61
2023/07/19 06:52:10;;;;;;;0.00;0.00;;;;;;;23.72;59.15;101413.94;5049281;28;20021;-62
2023/07/19 06:54:36;;;;;;;0.00;0.00;;;;;;;24.29;57.79;101402.53;5031438;28;20099;-64
2023/07/19 06:57:01;;;;;;;0.00;0.00;;;;;;;24.35;57.73;101406.84;5049062;28;20037;-63
2023/07/19 06:59:27;;;;;;;0.00;0.00;;;;;;;24.41;57.43;101400.91;5048914;28;20152;-63
2023/07/19 07:01:53;;;;;;;0.00;0.00;;;;;;;24.63;56.46;101404.91;5048602;28;20067;-63
2023/07/19 07:04:18;;;;;;;0.00;0.00;;;;;;;24.20;57.45;101404.34;5049001;28;20389;-62
2023/07/19 07:06:44;;;;;;;0.00;0.00;;;;;;;23.85;58.12;101404.91;5049663;28;20021;-62
2023/07/19 07:09:09;;;;;;;0.00;0.00;;;;;;;23.55;59.52;101409.78;5049054;28;20029;-63
2023/07/19 07:11:35;;;;;;;0.00;0.00;;;;;;;23.43;59.67;101416.81;5048961;28;20037;-63
2023/07/19 07:14:00;;;;;;;0.00;0.00;;;;;;;24.38;56.11;101414.44;5048694;28;20091;-63
2023/07/19 07:16:28;;;;;;;0.00;0.00;;;;;;;24.39;56.63;101416.88;5036587;28;20045;-64
2023/07/19 07:18:53;;;;;;;0.00;0.00;;;;;;;24.35;56.76;101415.88;5029415;28;20028;-62
2023/07/19 07:21:19;;;;;;;0.00;0.00;;;;;;;24.08;56.20;101420.47;5028636;28;20033;-61
2023/07/19 07:23:44;;;;;;;0.00;0.00;;;;;;;24.25;56.18;101426.25;5029049;28;20037;-63
2023/07/19 07:26:09;;;;;;;0.00;0.00;;;;;;;23.57;58.66;101422.41;5029185;28;20033;-62
2023/07/19 07:28:35;;;;;;;0.00;0.00;;;;;;;24.18;56.76;101423.88;5028855;28;20045;-62
2023/07/19 07:31:08;;;;;;;0.00;0.00;;;;;;;24.16;55.55;101422.53;5028628;28;20025;-62
2023/07/19 07:33:34;;;;;;;0.00;0.00;;;;;;;24.08;56.59;101418.56;5029316;28;20076;-61
2023/07/19 07:35:59;;;;;;;0.00;0.00;;;;;;;24.75;55.49;101413.47;5028822;28;20485;-62
2023/07/19 07:38:25;;;;;;;0.00;0.00;;;;;;;24.25;55.05;101421.53;5028787;28;20095;-63
2023/07/19 07:40:50;;;;;;;0.00;0.00;;;;;;;24.47;55.09;101418.13;5010564;28;20025;-64
2023/07/19 07:43:15;;;;;;;0.00;0.00;;;;;;;24.31;55.27;101414.84;5028626;28;20084;-63
2023/07/19 07:45:41;;;;;;;0.00;0.00;;;;;;;24.73;54.09;101412.97;5029112;28;20029;-62
2023/07/19 07:48:07;;;;;;;0.00;0.00;;;;;;;25.30;52.65;101408.75;5028979;28;20033;-63
2023/07/19 07:50:32;;;;;;;0.00;0.00;;;;;;;24.94;54.49;101414.22;5028753;28;20484;-63
2023/07/19 07:52:58;;;;;;;0.00;0.00;;;;;;;25.28;53.42;101417.28;5028626;28;20117;-62
2023/07/19 07:55:23;;;;;;;0.00;0.00;;;;;;;25.38;54.22;101416.25;5028847;28;20469;-63
2023/07/19 07:57:49;;;;;;;0.00;0.00;;;;;;;24.87;54.19;101411.88;5036231;28;20119;-63
2023/07/19 08:00:17;;;;;;;0.00;0.00;;;;;;;24.80;55.63;101414.22;5048320;28;20048;-61
2023/07/19 08:02:42;;;;;;;0.00;0.00;;;;;;;24.69;55.04;101410.00;5048645;28;20056;-61
2023/07/19 08:05:09;;;;;;;0.00;0.00;;;;;;;24.71;55.17;101404.19;5048694;28;20508;-63
2023/07/19 08:07:34;;;;;;;0.00;0.00;;;;;;;25.58;52.78;101402.88;5048759;28;20115;-63
2023/07/19 08:10:00;;;;;;;0.00;0.00;;;;;;;24.08;55.62;101409.50;5048566;28;20033;-61
2023/07/19 08:12:25;;;;;;;0.00;0.00;;;;;;;24.26;55.47;101403.13;5049339;28;20021;-61
2023/07/19 08:14:50;;;;;;;0.00;0.00;;;;;;;24.56;56.02;101407.25;5049968;28;20044;-63
2023/07/19 08:17:16;;;;;;;0.00;0.00;;;;;;;24.05;56.40;101401.88;5030785;28;20041;-64
2023/07/19 08:19:41;;;;;;;0.00;0.00;;;;;;;24.93;53.85;101399.63;5031934;28;20459;-64
2023/07/19 08:22:07;;;;;;;0.00;0.00;;;;;;;25.30;52.50;101392.25;5032210;28;20029;-63
2023/07/19 08:24:33;;;;;;;0.00;0.00;;;;;;;25.43;53.46;101394.16;5032889;28;20021;-63
2023/07/19 08:26:58;;;;;;;0.10;0.10;;;;;;;25.08;53.68;101393.81;5032444;28;20497;-64
2023/07/19 08:29:26;;;;;;;0.00;0.00;;;;;;;24.70;56.27;101391.56;5032088;28;20064;-63
2023/07/19 08:31:52;;;;;;;0.00;0.00;;;;;;;24.49;55.32;101385.66;5031803;28;20116;-62
2023/07/19 08:34:18;;;;;;;0.00;0.00;;;;;;;24.32;53.99;101388.19;5031688;28;20034;-64
2023/07/19 08:36:43;;;;;;;0.00;0.00;;;;;;;24.07;54.73;101391.41;5032494;28;20481;-62
2023/07/19 08:39:08;;;;;;;0.00;0.00;;;;;;;24.61;56.39;101388.72;5031578;28;20029;-62
2023/07/19 08:41:35;;;;;;;0.00;0.00;;;;;;;24.83;54.20;101388.03;5031733;28;20456;-63
2023/07/19 08:44:00;;;;;;;0.00;0.00;;;;;;;24.83;55.05;101388.84;5041228;28;20048;-62
2023/07/19 08:46:26;;;;;;;0.00;0.00;;;;;;;25.45;52.89;101389.16;5051663;28;20118;-63
2023/07/19 08:48:51;;;;;;;0.00;0.00;;;;;;;25.41;52.33;101391.72;5034109;28;20460;-62
2023/07/19 08:51:17;;;;;;;0.00;0.00;;;;;;;25.24;53.85;101386.03;5051787;28;20574;-63
2023/07/19 08:53:43;;;;;;;0.00;0.00;;;;;;;25.20;56.22;101385.84;5051200;28;20059;-63
2023/07/19 08:56:13;;;;;;;0.00;0.00;;;;;;;25.53;53.78;101386.50;5051389;28;20033;-63
2023/07/19 08:58:39;;;;;;;0.00;0.00;;;;;;;25.94;54.07;101386.28;5051098;28;20047;-63
2023/07/19 09:01:06;;;;;;;0.00;0.00;;;;;;;25.54;54.67;101381.78;5051475;28;20037;-62
2023/07/19 09:03:31;;;;;;;0.00;0.00;;;;;;;26.06;51.69;101383.81;5051935;28;20104;-63
2023/07/19 09:05:57;;;;;;;0.00;0.00;;;;;;;25.78;53.16;101385.03;5051266;28;20341;-63
2023/07/19 09:08:42;;;;;;;0.00;0.00;;;;;;;25.92;52.72;101377.53;5051203;28;20106;-64
2023/07/19 09:11:08;;;;;;;0.00;0.00;;;;;;;25.57;53.45;101381.97;5048768;28;20047;-63
2023/07/19 09:13:36;;;;;;;0.00;0.00;;;;;;;25.15;53.80;101388.72;5031147;28;20041;-63
2023/07/19 09:16:05;;;;;;;0.00;0.00;;;;;;;24.41;58.37;101389.13;5013119;28;20029;-63
2023/07/19 09:18:37;;;;;;;0.00;0.00;;;;;;;24.50;57.89;101383.72;5032064;28;20248;-62
2023/07/19 09:21:05;;;;;;;0.00;0.00;;;;;;;24.42;56.07;101393.50;5030991;28;20029;-64
2023/07/19 09:23:36;;;;;;;0.00;0.00;;;;;;;24.89;56.08;101393.13;5013261;28;20120;-62
2023/07/19 09:26:03;;;;;;;;;;;;;;;25.55;54.28;101395.22;5030953;28;20034;-64
2023/07/19 09:28:29;;;;;;;0.00;0.00;;;;;;;25.75;53.59;101388.44;5030927;28;20296;-63
2023/07/19 09:30:58;;;;;;;0.00;0.00;;;;;;;25.46;55.44;101393.53;5030962;28;20025;-64
2023/07/19 09:33:27;;;;;;;0.00;0.00;;;;;;;25.44;55.63;101391.09;5031270;28;20489;-63
2023/07/19 09:35:55;;;;;;;0.00;0.00;;;;;;;25.24;55.06;101389.59;5010760;28;20069;-64
2023/07/19 09:38:22;;;;;;;0.00;0.00;;;;;;;24.45;57.67;101389.34;5010998;28;20038;-64
2023/07/19 09:40:50;;;;;;;0.00;0.00;;;;;;;25.47;55.31;101389.66;5010990;28;20045;-63
2023/07/19 09:43:16;;;;;;;0.00;0.00;;;;;;;25.41;54.62;101393.66;5014249;28;20116;-62
2023/07/19 09:45:42;;;;;;;0.00;0.00;;;;;;;25.58;53.57;101391.88;5031301;28;20587;-60
2023/07/19 09:48:08;;;;;;;0.00;0.00;;;;;;;26.15;52.85;101389.34;5030622;28;20048;-63
2023/07/19 09:50:39;;;;;;;0.00;0.00;;;;;;;26.77;51.39;101385.47;5030507;28;20029;-64
2023/07/19 09:53:09;;;;;;;0.00;0.00;;;;;;;25.88;52.47;101391.13;5030402;28;20063;-64
2023/07/19 09:55:35;;;;;;;0.00;0.00;;;;;;;25.67;52.56;101389.19;5028308;28;20037;-63
2023/07/19 09:58:03;;;;;;;0.00;0.00;;;;;;;25.57;53.47;101386.69;5035042;28;20531;-64
2023/07/19 10:00:29;;;;;;;0.00;0.00;;;;;;;25.35;54.30;101383.88;5050653;28;20404;-63
2023/07/19 10:02:54;;;;;;;0.00;0.00;;;;;;;25.36;53.27;101379.97;5050291;28;20037;-62
2023/07/19 10:05:28;;;;;;;0.00;0.00;;;;;;;25.35;53.16;101386.63;5050146;28;20439;-62
2023/07/19 10:08:00;;;;;;;0.00;0.00;;;;;;;26.09;50.33;101383.16;5050446;28;20139;-63
2023/07/19 10:10:42;;;;;;;0.00;0.00;;;;;;;26.69;49.92;101373.22;5043406;28;20033;-62
2023/07/19 10:13:08;;;;;;;0.00;0.00;;;;;;;26.66;49.39;101378.56;5029085;28;20413;-63
2023/07/19 10:15:35;;;;;;;0.00;0.00;;;;;;;26.08;50.51;101387.06;5027884;28;20026;-64
2023/07/19 10:18:01;;;;;;;0.00;0.00;;;;;;;24.89;53.14;101381.31;5030055;28;20121;-61
2023/07/19 10:20:26;;;;;;;0.00;0.00;;;;;;;25.21;53.85;101381.97;5030021;28;20033;-63
2023/07/19 10:23:05;;;;;;;0.00;0.00;;;;;;;25.93;52.09;101382.72;5030008;28;20053;-62
2023/07/19 10:25:47;;;;;;;0.00;0.00;;;;;;;26.08;51.00;101390.63;5029936;28;20037;-63
2023/07/19 10:28:24;;;;;;;0.00;0.00;;;;;;;25.80;51.58;101388.31;5030070;28;20104;-63
2023/07/19 10:30:54;;;;;;;0.00;0.00;;;;;;;26.85;49.66;101395.69;5012482;28;20417;-63
2023/07/19 10:33:24;;;;;;;0.00;0.00;;;;;;;26.20;49.45;101390.03;5030479;28;20572;-65
2023/07/19 10:35:54;;;;;;;0.00;0.00;;;;;;;27.16;47.97;101381.78;5029106;28;20046;-61
2023/07/19 10:38:24;;;;;;;0.00;0.00;;;;;;;25.90;52.95;101388.88;5029289;28;20481;-65
2023/07/19 10:40:54;;;;;;;;;;;;;;;26.06;51.99;101395.63;5012606;28;20132;-64
2023/07/19 10:43:20;;;;;;;0.00;0.00;;;;;;;25.08;53.81;101395.75;5025239;28;19928;-63
2023/07/19 10:45:45;;;;;;;0.00;0.00;;;;;;;26.12;50.91;101385.31;5049862;28;20021;-63
2023/07/19 10:48:11;;;;;;;0.00;0.00;;;;;;;26.42;50.40;101378.97;5049276;28;20041;-63
2023/07/19 10:50:38;;;;;;;0.00;0.00;;;;;;;26.02;52.19;101391.84;5049119;28;20033;-63
2023/07/19 10:53:04;;;;;;;0.00;0.00;;;;;;;26.00;51.00;101382.28;5049341;28;20516;-64
2023/07/19 10:55:30;;;;;;;0.00;0.00;;;;;;;26.20;50.58;101392.00;5031344;28;20129;-64
2023/07/19 10:57:55;;;;;;;0.00;0.00;;;;;;;25.82;51.29;101386.88;5048904;28;20451;-62
2023/07/19 11:00:21;;;;;;;0.00;0.00;;;;;;;25.60;51.91;101392.38;5049149;28;20483;-63
2023/07/19 11:02:46;;;;;;;0.00;0.00;;;;;;;26.49;49.04;101379.31;5049039;28;20071;-62
2023/07/19 11:05:13;;;;;;;0.00;0.00;;;;;;;26.01;51.31;101386.66;5031097;28;20044;-64
2023/07/19 11:07:38;;;;;;;0.00;0.00;;;;;;;25.78;50.93;101399.63;5037140;28;20044;-64
2023/07/19 11:10:05;;;;;;;0.00;0.00;;;;;;;26.07;49.06;101394.50;5028920;28;20021;-62
2023/07/19 11:12:31;;;;;;;0.00;0.00;;;;;;;25.67;49.82;101389.19;5029407;28;20021;-64
2023/07/19 11:15:00;;;;;;;0.00;0.00;;;;;;;25.26;51.53;101392.03;5028814;28;20070;-61
2023/07/19 11:17:28;;;;;;;0.00;0.00;;;;;;;24.54;52.49;101393.00;5029131;28;20034;-62
2023/07/19 11:19:53;;;;;;;0.00;0.00;;;;;;;25.37;51.64;101393.44;5029006;28;20205;-64
2023/07/19 11:22:23;;;;;;;0.00;0.00;;;;;;;25.68;50.33;101385.28;5028740;28;20042;-63